sensor_id;sensor_type;location;lat;lon;timestamp;temperature;humidity
81726;DHT22;71135;16.738;-14.648;2024-03-08T00:00:23;6.70;60.00
81726;DHT22;71135;16.738;-14.648;2024-03-08T00:02:52;6.70;60.00
81726;DHT22;71135;16.738;-14.648;2024-03-08T00:05:22;6.60;60.00
81726;DHT22;71135;16.738;-14.648;2024-03-08T00:07:51;6.60;60.00
81726;DHT22;71135;16.738;-14.648;2024-03-08T00:10:20;6.60;60.00
81726;DHT22;71135;16.738;-14.648;2024-03-08T00:12:50;6.60;60.00
81726;DHT22;71135;16.738;-14.648;2024-03-08T00:15:22;6.60;59.90
81726;DHT22;71135;16.738;-14.648;2024-03-08T00:17:51;6.60;59.90
81726;DHT22;71135;16.738;-14.648;2024-03-08T00:20:21;6.50;60.00
81726;DHT22;71135;16.738;-14.648;2024-03-08T00:22:53;6.50;60.00
81726;DHT22;71135;16.738;-14.648;2024-03-08T00:25:24;6.50;60.00
81726;DHT22;71135;16.738;-14.648;2024-03-08T00:27:53;6.40;60.00
81726;DHT22;71135;16.738;-14.648;2024-03-08T00:30:26;6.40;60.00
81726;DHT22;71135;16.738;-14.648;2024-03-08T00:32:55;6.40;60.00
81726;DHT22;71135;16.738;-14.648;2024-03-08T00:35:24;6.50;60.00
81726;DHT22;71135;16.738;-14.648;2024-03-08T00:37:53;6.50;60.00
81726;DHT22;71135;16.738;-14.648;2024-03-08T00:40:25;6.50;59.90
81726;DHT22;71135;16.738;-14.648;2024-03-08T00:42:55;6.50;59.80
81726;DHT22;71135;16.738;-14.648;2024-03-08T00:45:26;6.50;59.80
81726;DHT22;71135;16.738;-14.648;2024-03-08T00:47:56;6.50;59.70
81726;DHT22;71135;16.738;-14.648;2024-03-08T00:50:25;6.50;59.70
81726;DHT22;71135;16.738;-14.648;2024-03-08T00:52:54;6.50;59.60
81726;DHT22;71135;16.738;-14.648;2024-03-08T00:55:25;6.50;59.60
81726;DHT22;71135;16.738;-14.648;2024-03-08T00:57:55;6.40;59.60
81726;DHT22;71135;16.738;-14.648;2024-03-08T01:03:29;6.40;59.60
81726;DHT22;71135;16.738;-14.648;2024-03-08T01:06:00;6.30;59.70
81726;DHT22;71135;16.738;-14.648;2024-03-08T01:08:30;6.30;59.70
81726;DHT22;71135;16.738;-14.648;2024-03-08T01:10:59;6.30;59.70
81726;DHT22;71135;16.738;-14.648;2024-03-08T01:13:29;6.30;59.60
81726;DHT22;71135;16.738;-14.648;2024-03-08T01:15:58;6.30;59.60
81726;DHT22;71135;16.738;-14.648;2024-03-08T01:18:29;6.30;59.60
81726;DHT22;71135;16.738;-14.648;2024-03-08T01:20:59;6.30;59.60
81726;DHT22;71135;16.738;-14.648;2024-03-08T01:23:28;6.20;59.60
81726;DHT22;71135;16.738;-14.648;2024-03-08T01:25:57;6.20;59.60
81726;DHT22;71135;16.738;-14.648;2024-03-08T01:28:29;6.20;59.60
81726;DHT22;71135;16.738;-14.648;2024-03-08T01:31:00;6.20;59.60
81726;DHT22;71135;16.738;-14.648;2024-03-08T01:33:32;6.10;59.60
81726;DHT22;71135;16.738;-14.648;2024-03-08T01:36:02;6.10;59.60
81726;DHT22;71135;16.738;-14.648;2024-03-08T01:41:35;6.10;59.60
81726;DHT22;71135;16.738;-14.648;2024-03-08T01:44:07;6.00;59.60
81726;DHT22;71135;16.738;-14.648;2024-03-08T01:46:36;6.00;59.70
81726;DHT22;71135;16.738;-14.648;2024-03-08T01:49:08;6.00;59.70
81726;DHT22;71135;16.738;-14.648;2024-03-08T01:51:39;5.90;59.70
81726;DHT22;71135;16.738;-14.648;2024-03-08T01:54:09;5.90;59.60
81726;DHT22;71135;16.738;-14.648;2024-03-08T01:56:40;5.90;59.70
81726;DHT22;71135;16.738;-14.648;2024-03-08T01:59:09;5.90;59.60
81726;DHT22;71135;16.738;-14.648;2024-03-08T02:01:41;5.90;59.60
81726;DHT22;71135;16.738;-14.648;2024-03-08T02:04:12;5.80;59.60
81726;DHT22;71135;16.738;-14.648;2024-03-08T02:06:42;5.80;59.70
81726;DHT22;71135;16.738;-14.648;2024-03-08T02:09:12;5.80;59.70
81726;DHT22;71135;16.738;-14.648;2024-03-08T02:11:43;5.80;59.70
81726;DHT22;71135;16.738;-14.648;2024-03-08T02:14:12;5.80;59.70
81726;DHT22;71135;16.738;-14.648;2024-03-08T02:20:03;5.80;59.70
81726;DHT22;71135;16.738;-14.648;2024-03-08T02:22:39;5.70;59.80
81726;DHT22;71135;16.738;-14.648;2024-03-08T02:25:08;5.70;59.80
81726;DHT22;71135;16.738;-14.648;2024-03-08T02:27:38;5.60;59.80
81726;DHT22;71135;16.738;-14.648;2024-03-08T02:30:09;5.70;59.80
81726;DHT22;71135;16.738;-14.648;2024-03-08T02:32:38;5.60;59.80
81726;DHT22;71135;16.738;-14.648;2024-03-08T02:35:08;5.70;59.70
81726;DHT22;71135;16.738;-14.648;2024-03-08T02:37:39;5.60;59.80
81726;DHT22;71135;16.738;-14.648;2024-03-08T02:40:10;5.60;59.70
81726;DHT22;71135;16.738;-14.648;2024-03-08T02:42:39;5.60;59.80
81726;DHT22;71135;16.738;-14.648;2024-03-08T02:45:09;5.60;59.70
81726;DHT22;71135;16.738;-14.648;2024-03-08T02:47:39;5.60;59.70
81726;DHT22;71135;16.738;-14.648;2024-03-08T02:50:08;5.60;59.70
81726;DHT22;71135;16.738;-14.648;2024-03-08T02:52:40;5.60;59.70
81726;DHT22;71135;16.738;-14.648;2024-03-08T02:55:10;5.50;59.70
81726;DHT22;71135;16.738;-14.648;2024-03-08T02:57:42;5.50;59.80
81726;DHT22;71135;16.738;-14.648;2024-03-08T03:00:13;5.50;59.80
81726;DHT22;71135;16.738;-14.648;2024-03-08T03:02:43;5.50;59.70
81726;DHT22;71135;16.738;-14.648;2024-03-08T03:05:12;5.50;59.70
81726;DHT22;71135;16.738;-14.648;2024-03-08T03:07:43;5.50;59.70
81726;DHT22;71135;16.738;-14.648;2024-03-08T03:10:14;5.50;59.70
81726;DHT22;71135;16.738;-14.648;2024-03-08T03:12:43;5.50;59.70
81726;DHT22;71135;16.738;-14.648;2024-03-08T03:15:15;5.50;59.70
81726;DHT22;71135;16.738;-14.648;2024-03-08T03:17:46;5.50;59.70
81726;DHT22;71135;16.738;-14.648;2024-03-08T03:20:17;5.50;59.80
81726;DHT22;71135;16.738;-14.648;2024-03-08T03:22:51;5.50;59.70
81726;DHT22;71135;16.738;-14.648;2024-03-08T03:25:22;5.50;59.70
81726;DHT22;71135;16.738;-14.648;2024-03-08T03:27:55;5.40;59.70
81726;DHT22;71135;16.738;-14.648;2024-03-08T03:30:24;5.40;59.70
81726;DHT22;71135;16.738;-14.648;2024-03-08T03:33:01;5.40;59.70
81726;DHT22;71135;16.738;-14.648;2024-03-08T03:35:33;5.30;59.70
81726;DHT22;71135;16.738;-14.648;2024-03-08T03:38:05;5.30;59.80
81726;DHT22;71135;16.738;-14.648;2024-03-08T03:40:36;5.30;59.70
81726;DHT22;71135;16.738;-14.648;2024-03-08T03:43:06;5.30;59.70
81726;DHT22;71135;16.738;-14.648;2024-03-08T03:45:36;5.30;59.70
81726;DHT22;71135;16.738;-14.648;2024-03-08T03:48:06;5.30;59.70
81726;DHT22;71135;16.738;-14.648;2024-03-08T03:50:36;5.30;59.70
81726;DHT22;71135;16.738;-14.648;2024-03-08T03:53:08;5.30;59.80
81726;DHT22;71135;16.738;-14.648;2024-03-08T03:55:37;5.30;59.80
81726;DHT22;71135;16.738;-14.648;2024-03-08T03:58:06;5.30;59.80
81726;DHT22;71135;16.738;-14.648;2024-03-08T04:00:36;5.20;59.80
81726;DHT22;71135;16.738;-14.648;2024-03-08T04:03:05;5.30;59.80
81726;DHT22;71135;16.738;-14.648;2024-03-08T04:05:34;5.20;59.70
81726;DHT22;71135;16.738;-14.648;2024-03-08T04:08:06;5.20;59.80
81726;DHT22;71135;16.738;-14.648;2024-03-08T04:10:35;5.10;59.70
81726;DHT22;71135;16.738;-14.648;2024-03-08T04:13:05;5.20;59.80
81726;DHT22;71135;16.738;-14.648;2024-03-08T04:15:35;5.10;59.70
81726;DHT22;71135;16.738;-14.648;2024-03-08T04:18:04;5.10;59.70
81726;DHT22;71135;16.738;-14.648;2024-03-08T04:20:34;5.10;59.80
81726;DHT22;71135;16.738;-14.648;2024-03-08T04:23:03;5.10;59.80
81726;DHT22;71135;16.738;-14.648;2024-03-08T04:25:35;5.00;59.80
81726;DHT22;71135;16.738;-14.648;2024-03-08T04:28:04;5.00;59.80
81726;DHT22;71135;16.738;-14.648;2024-03-08T04:30:34;5.00;59.80
81726;DHT22;71135;16.738;-14.648;2024-03-08T04:33:03;5.00;59.80
81726;DHT22;71135;16.738;-14.648;2024-03-08T04:35:33;5.00;59.80
81726;DHT22;71135;16.738;-14.648;2024-03-08T04:38:02;5.00;59.80
81726;DHT22;71135;16.738;-14.648;2024-03-08T04:40:31;5.00;59.80
81726;DHT22;71135;16.738;-14.648;2024-03-08T04:43:03;5.00;59.80
81726;DHT22;71135;16.738;-14.648;2024-03-08T04:45:34;5.00;59.80
81726;DHT22;71135;16.738;-14.648;2024-03-08T04:48:04;5.00;59.80
81726;DHT22;71135;16.738;-14.648;2024-03-08T04:50:34;5.00;59.80
81726;DHT22;71135;16.738;-14.648;2024-03-08T04:53:04;5.00;59.80
81726;DHT22;71135;16.738;-14.648;2024-03-08T04:55:34;5.00;59.80
81726;DHT22;71135;16.738;-14.648;2024-03-08T04:58:06;5.00;59.80
81726;DHT22;71135;16.738;-14.648;2024-03-08T05:00:35;5.00;59.80
81726;DHT22;71135;16.738;-14.648;2024-03-08T05:03:04;4.90;59.70
81726;DHT22;71135;16.738;-14.648;2024-03-08T05:05:34;4.90;59.80
81726;DHT22;71135;16.738;-14.648;2024-03-08T05:08:03;4.90;59.70
81726;DHT22;71135;16.738;-14.648;2024-03-08T05:10:33;4.90;59.70
81726;DHT22;71135;16.738;-14.648;2024-03-08T05:13:02;4.90;59.70
81726;DHT22;71135;16.738;-14.648;2024-03-08T05:15:34;4.90;59.60
81726;DHT22;71135;16.738;-14.648;2024-03-08T05:18:05;4.90;59.70
81726;DHT22;71135;16.738;-14.648;2024-03-08T05:20:37;4.90;59.60
81726;DHT22;71135;16.738;-14.648;2024-03-08T05:23:07;4.90;59.70
81726;DHT22;71135;16.738;-14.648;2024-03-08T05:25:36;4.90;59.70
81726;DHT22;71135;16.738;-14.648;2024-03-08T05:28:06;4.90;59.60
81726;DHT22;71135;16.738;-14.648;2024-03-08T05:30:38;4.90;59.60
81726;DHT22;71135;16.738;-14.648;2024-03-08T05:33:07;4.90;59.60
81726;DHT22;71135;16.738;-14.648;2024-03-08T05:35:40;4.90;59.70
81726;DHT22;71135;16.738;-14.648;2024-03-08T05:38:09;4.90;59.60
81726;DHT22;71135;16.738;-14.648;2024-03-08T05:40:39;4.90;59.60
81726;DHT22;71135;16.738;-14.648;2024-03-08T05:43:09;4.90;59.50
81726;DHT22;71135;16.738;-14.648;2024-03-08T05:45:38;4.80;59.60
81726;DHT22;71135;16.738;-14.648;2024-03-08T05:48:08;4.80;59.60
81726;DHT22;71135;16.738;-14.648;2024-03-08T05:50:38;4.70;59.60
81726;DHT22;71135;16.738;-14.648;2024-03-08T05:53:09;4.70;59.60
81726;DHT22;71135;16.738;-14.648;2024-03-08T05:55:39;4.70;59.60
81726;DHT22;71135;16.738;-14.648;2024-03-08T05:58:08;4.70;59.60
81726;DHT22;71135;16.738;-14.648;2024-03-08T06:00:40;4.70;59.60
81726;DHT22;71135;16.738;-14.648;2024-03-08T06:03:10;4.70;59.60
81726;DHT22;71135;16.738;-14.648;2024-03-08T06:05:39;4.70;59.60
81726;DHT22;71135;16.738;-14.648;2024-03-08T06:08:09;4.70;59.60
81726;DHT22;71135;16.738;-14.648;2024-03-08T06:10:42;4.70;59.60
81726;DHT22;71135;16.738;-14.648;2024-03-08T06:13:11;4.70;59.60
81726;DHT22;71135;16.738;-14.648;2024-03-08T06:15:43;4.70;59.60
81726;DHT22;71135;16.738;-14.648;2024-03-08T06:18:12;4.70;59.60
81726;DHT22;71135;16.738;-14.648;2024-03-08T06:20:42;4.60;59.60
81726;DHT22;71135;16.738;-14.648;2024-03-08T06:23:12;4.60;59.60
81726;DHT22;71135;16.738;-14.648;2024-03-08T06:25:43;4.70;59.70
81726;DHT22;71135;16.738;-14.648;2024-03-08T06:28:13;4.60;59.70
81726;DHT22;71135;16.738;-14.648;2024-03-08T06:30:45;4.60;59.70
81726;DHT22;71135;16.738;-14.648;2024-03-08T06:33:16;4.60;59.70
81726;DHT22;71135;16.738;-14.648;2024-03-08T06:35:46;4.60;59.70
81726;DHT22;71135;16.738;-14.648;2024-03-08T06:38:15;4.50;59.70
81726;DHT22;71135;16.738;-14.648;2024-03-08T06:40:46;4.60;59.80
81726;DHT22;71135;16.738;-14.648;2024-03-08T06:43:17;4.60;59.80
81726;DHT22;71135;16.738;-14.648;2024-03-08T06:45:49;4.60;59.70
81726;DHT22;71135;16.738;-14.648;2024-03-08T06:48:19;4.60;59.80
81726;DHT22;71135;16.738;-14.648;2024-03-08T06:50:48;4.70;59.70
81726;DHT22;71135;16.738;-14.648;2024-03-08T06:53:17;4.60;59.80
81726;DHT22;71135;16.738;-14.648;2024-03-08T06:55:47;4.70;59.80
81726;DHT22;71135;16.738;-14.648;2024-03-08T06:58:16;4.70;59.80
81726;DHT22;71135;16.738;-14.648;2024-03-08T07:00:46;4.70;59.80
81726;DHT22;71135;16.738;-14.648;2024-03-08T07:03:20;4.70;59.80
81726;DHT22;71135;16.738;-14.648;2024-03-08T07:05:49;4.80;59.80
81726;DHT22;71135;16.738;-14.648;2024-03-08T07:08:21;4.90;59.80
81726;DHT22;71135;16.738;-14.648;2024-03-08T07:10:50;4.90;59.80
81726;DHT22;71135;16.738;-14.648;2024-03-08T07:13:19;5.00;59.70
81726;DHT22;71135;16.738;-14.648;2024-03-08T07:15:48;5.00;59.70
81726;DHT22;71135;16.738;-14.648;2024-03-08T07:18:21;5.00;59.70
81726;DHT22;71135;16.738;-14.648;2024-03-08T07:20:50;5.10;59.70
81726;DHT22;71135;16.738;-14.648;2024-03-08T07:23:19;5.10;59.70
81726;DHT22;71135;16.738;-14.648;2024-03-08T07:26:01;5.10;59.60
81726;DHT22;71135;16.738;-14.648;2024-03-08T07:28:30;5.20;59.60
81726;DHT22;71135;16.738;-14.648;2024-03-08T07:30:59;5.30;59.50
81726;DHT22;71135;16.738;-14.648;2024-03-08T07:33:46;5.30;59.50
81726;DHT22;71135;16.738;-14.648;2024-03-08T07:36:16;5.40;59.50
81726;DHT22;71135;16.738;-14.648;2024-03-08T07:38:45;5.50;59.40
81726;DHT22;71135;16.738;-14.648;2024-03-08T07:41:15;5.60;59.50
81726;DHT22;71135;16.738;-14.648;2024-03-08T07:43:45;5.60;59.30
81726;DHT22;71135;16.738;-14.648;2024-03-08T07:46:16;5.80;59.20
81726;DHT22;71135;16.738;-14.648;2024-03-08T07:48:48;5.90;59.20
81726;DHT22;71135;16.738;-14.648;2024-03-08T07:51:17;6.00;59.10
81726;DHT22;71135;16.738;-14.648;2024-03-08T07:53:47;6.10;59.00
81726;DHT22;71135;16.738;-14.648;2024-03-08T07:56:16;6.20;58.90
81726;DHT22;71135;16.738;-14.648;2024-03-08T07:58:47;6.30;58.70
81726;DHT22;71135;16.738;-14.648;2024-03-08T08:01:17;6.40;58.60
81726;DHT22;71135;16.738;-14.648;2024-03-08T08:03:49;6.40;58.60
81726;DHT22;71135;16.738;-14.648;2024-03-08T08:06:18;6.40;58.40
81726;DHT22;71135;16.738;-14.648;2024-03-08T08:08:47;6.40;58.40
81726;DHT22;71135;16.738;-14.648;2024-03-08T08:11:16;6.50;58.40
81726;DHT22;71135;16.738;-14.648;2024-03-08T08:13:46;6.50;58.40
81726;DHT22;71135;16.738;-14.648;2024-03-08T08:16:15;6.50;58.40
81726;DHT22;71135;16.738;-14.648;2024-03-08T08:18:48;6.60;58.30
81726;DHT22;71135;16.738;-14.648;2024-03-08T08:21:18;6.70;58.20
81726;DHT22;71135;16.738;-14.648;2024-03-08T08:23:48;6.80;58.10
81726;DHT22;71135;16.738;-14.648;2024-03-08T08:26:17;6.90;57.90
81726;DHT22;71135;16.738;-14.648;2024-03-08T08:28:47;7.00;57.70
81726;DHT22;71135;16.738;-14.648;2024-03-08T08:31:16;7.10;57.70
81726;DHT22;71135;16.738;-14.648;2024-03-08T08:33:51;7.30;57.60
81726;DHT22;71135;16.738;-14.648;2024-03-08T08:36:24;7.50;57.40
81726;DHT22;71135;16.738;-14.648;2024-03-08T08:38:51;7.50;57.10
81726;DHT22;71135;16.738;-14.648;2024-03-08T08:41:20;7.60;56.90
81726;DHT22;71135;16.738;-14.648;2024-03-08T08:43:50;7.80;56.70
81726;DHT22;71135;16.738;-14.648;2024-03-08T08:46:19;7.80;56.70
81726;DHT22;71135;16.738;-14.648;2024-03-08T08:48:51;7.90;56.50
81726;DHT22;71135;16.738;-14.648;2024-03-08T08:51:20;7.90;56.50
81726;DHT22;71135;16.738;-14.648;2024-03-08T08:53:50;8.00;56.40
81726;DHT22;71135;16.738;-14.648;2024-03-08T08:56:19;8.10;56.30
81726;DHT22;71135;16.738;-14.648;2024-03-08T08:58:48;8.10;56.10
81726;DHT22;71135;16.738;-14.648;2024-03-08T09:01:19;8.20;56.10
81726;DHT22;71135;16.738;-14.648;2024-03-08T09:03:51;8.20;56.00
81726;DHT22;71135;16.738;-14.648;2024-03-08T09:06:20;8.20;55.80
81726;DHT22;71135;16.738;-14.648;2024-03-08T09:08:51;8.20;55.80
81726;DHT22;71135;16.738;-14.648;2024-03-08T09:11:20;8.20;55.70
81726;DHT22;71135;16.738;-14.648;2024-03-08T09:13:51;8.30;55.70
81726;DHT22;71135;16.738;-14.648;2024-03-08T09:16:21;8.20;55.60
81726;DHT22;71135;16.738;-14.648;2024-03-08T09:22:12;8.30;55.70
81726;DHT22;71135;16.738;-14.648;2024-03-08T09:24:42;8.40;55.70
81726;DHT22;71135;16.738;-14.648;2024-03-08T09:27:12;8.40;55.80
81726;DHT22;71135;16.738;-14.648;2024-03-08T09:29:41;8.50;55.70
81726;DHT22;71135;16.738;-14.648;2024-03-08T09:35:31;8.60;55.40
81726;DHT22;71135;16.738;-14.648;2024-03-08T09:38:04;8.60;55.60
81726;DHT22;71135;16.738;-14.648;2024-03-08T09:40:41;8.80;55.50
81726;DHT22;71135;16.738;-14.648;2024-03-08T09:49:46;9.00;55.10
81726;DHT22;71135;16.738;-14.648;2024-03-08T09:52:17;9.00;55.00
81726;DHT22;71135;16.738;-14.648;2024-03-08T09:54:50;9.10;55.00
81726;DHT22;71135;16.738;-14.648;2024-03-08T09:57:20;9.20;54.90
81726;DHT22;71135;16.738;-14.648;2024-03-08T09:59:51;9.20;55.00
81726;DHT22;71135;16.738;-14.648;2024-03-08T10:02:20;9.40;54.80
81726;DHT22;71135;16.738;-14.648;2024-03-08T10:04:51;9.40;54.70
81726;DHT22;71135;16.738;-14.648;2024-03-08T10:07:21;9.50;54.70
81726;DHT22;71135;16.738;-14.648;2024-03-08T10:09:54;9.60;54.70
81726;DHT22;71135;16.738;-14.648;2024-03-08T10:12:24;9.70;54.30
81726;DHT22;71135;16.738;-14.648;2024-03-08T10:14:55;10.00;54.40
81726;DHT22;71135;16.738;-14.648;2024-03-08T10:17:24;10.10;54.20
81726;DHT22;71135;16.738;-14.648;2024-03-08T10:19:58;10.40;54.10
81726;DHT22;71135;16.738;-14.648;2024-03-08T10:22:29;10.60;53.90
81726;DHT22;71135;16.738;-14.648;2024-03-08T10:25:01;10.90;53.60
81726;DHT22;71135;16.738;-14.648;2024-03-08T10:27:31;11.10;53.30
81726;DHT22;71135;16.738;-14.648;2024-03-08T10:30:01;11.40;53.10
81726;DHT22;71135;16.738;-14.648;2024-03-08T10:35:41;12.00;52.10
81726;DHT22;71135;16.738;-14.648;2024-03-08T10:38:12;12.20;51.90
81726;DHT22;71135;16.738;-14.648;2024-03-08T10:40:47;12.50;51.60
81726;DHT22;71135;16.738;-14.648;2024-03-08T10:43:23;12.80;51.40
81726;DHT22;71135;16.738;-14.648;2024-03-08T10:46:03;13.00;51.00
81726;DHT22;71135;16.738;-14.648;2024-03-08T10:48:40;13.30;50.50
81726;DHT22;71135;16.738;-14.648;2024-03-08T10:51:12;13.50;50.30
81726;DHT22;71135;16.738;-14.648;2024-03-08T10:53:42;13.60;50.00
81726;DHT22;71135;16.738;-14.648;2024-03-08T10:56:16;13.90;49.70
81726;DHT22;71135;16.738;-14.648;2024-03-08T10:58:46;14.00;49.50
81726;DHT22;71135;16.738;-14.648;2024-03-08T11:01:16;14.20;49.20
81726;DHT22;71135;16.738;-14.648;2024-03-08T11:03:46;14.40;49.00
81726;DHT22;71135;16.738;-14.648;2024-03-08T11:06:22;14.60;48.80
81726;DHT22;71135;16.738;-14.648;2024-03-08T11:08:52;14.80;48.50
81726;DHT22;71135;16.738;-14.648;2024-03-08T11:11:28;14.90;48.50
81726;DHT22;71135;16.738;-14.648;2024-03-08T11:14:01;15.10;48.20
81726;DHT22;71135;16.738;-14.648;2024-03-08T11:16:40;15.20;47.80
81726;DHT22;71135;16.738;-14.648;2024-03-08T11:19:26;15.30;47.50
81726;DHT22;71135;16.738;-14.648;2024-03-08T11:21:58;15.50;47.10
81726;DHT22;71135;16.738;-14.648;2024-03-08T11:24:28;15.50;47.00
81726;DHT22;71135;16.738;-14.648;2024-03-08T11:27:00;15.50;47.00
81726;DHT22;71135;16.738;-14.648;2024-03-08T11:29:34;15.60;46.80
81726;DHT22;71135;16.738;-14.648;2024-03-08T11:32:11;15.80;46.90
81726;DHT22;71135;16.738;-14.648;2024-03-08T11:34:42;15.90;46.50
81726;DHT22;71135;16.738;-14.648;2024-03-08T11:37:13;16.00;46.50
81726;DHT22;71135;16.738;-14.648;2024-03-08T11:39:47;16.10;46.20
81726;DHT22;71135;16.738;-14.648;2024-03-08T11:42:19;16.20;45.90
81726;DHT22;71135;16.738;-14.648;2024-03-08T11:44:50;16.30;45.80
81726;DHT22;71135;16.738;-14.648;2024-03-08T11:47:21;16.40;45.70
81726;DHT22;71135;16.738;-14.648;2024-03-08T11:49:52;16.40;45.40
81726;DHT22;71135;16.738;-14.648;2024-03-08T11:52:21;16.40;45.00
81726;DHT22;71135;16.738;-14.648;2024-03-08T11:54:53;16.30;44.90
81726;DHT22;71135;16.738;-14.648;2024-03-08T11:57:26;16.20;44.90
81726;DHT22;71135;16.738;-14.648;2024-03-08T11:59:56;16.30;45.00
81726;DHT22;71135;16.738;-14.648;2024-03-08T12:02:34;16.30;45.00
81726;DHT22;71135;16.738;-14.648;2024-03-08T12:05:05;16.40;45.00
81726;DHT22;71135;16.738;-14.648;2024-03-08T12:07:36;16.40;44.70
81726;DHT22;71135;16.738;-14.648;2024-03-08T12:10:15;16.40;44.70
81726;DHT22;71135;16.738;-14.648;2024-03-08T12:12:49;16.50;44.70
81726;DHT22;71135;16.738;-14.648;2024-03-08T12:15:21;16.50;44.50
81726;DHT22;71135;16.738;-14.648;2024-03-08T12:17:51;16.50;44.10
81726;DHT22;71135;16.738;-14.648;2024-03-08T12:20:23;16.50;44.30
81726;DHT22;71135;16.738;-14.648;2024-03-08T12:22:52;16.40;44.30
81726;DHT22;71135;16.738;-14.648;2024-03-08T12:25:25;16.40;44.20
81726;DHT22;71135;16.738;-14.648;2024-03-08T12:28:07;16.40;44.30
81726;DHT22;71135;16.738;-14.648;2024-03-08T12:30:46;16.40;44.30
81726;DHT22;71135;16.738;-14.648;2024-03-08T12:33:17;16.50;44.30
81726;DHT22;71135;16.738;-14.648;2024-03-08T12:35:53;16.50;44.10
81726;DHT22;71135;16.738;-14.648;2024-03-08T12:38:27;16.50;43.90
81726;DHT22;71135;16.738;-14.648;2024-03-08T12:40:58;16.50;43.80
81726;DHT22;71135;16.738;-14.648;2024-03-08T12:43:31;16.40;43.80
81726;DHT22;71135;16.738;-14.648;2024-03-08T12:46:00;16.40;43.70
81726;DHT22;71135;16.738;-14.648;2024-03-08T12:48:34;16.40;43.80
81726;DHT22;71135;16.738;-14.648;2024-03-08T12:51:06;16.30;43.80
81726;DHT22;71135;16.738;-14.648;2024-03-08T12:53:36;16.30;43.80
81726;DHT22;71135;16.738;-14.648;2024-03-08T12:56:09;16.30;44.00
81726;DHT22;71135;16.738;-14.648;2024-03-08T12:58:39;16.30;44.00
81726;DHT22;71135;16.738;-14.648;2024-03-08T13:01:09;16.30;43.80
81726;DHT22;71135;16.738;-14.648;2024-03-08T13:03:38;16.30;43.70
81726;DHT22;71135;16.738;-14.648;2024-03-08T13:06:09;16.30;43.70
81726;DHT22;71135;16.738;-14.648;2024-03-08T13:08:39;16.20;43.70
81726;DHT22;71135;16.738;-14.648;2024-03-08T13:11:10;16.20;43.50
81726;DHT22;71135;16.738;-14.648;2024-03-08T13:13:43;16.10;43.60
81726;DHT22;71135;16.738;-14.648;2024-03-08T13:16:12;16.00;43.60
81726;DHT22;71135;16.738;-14.648;2024-03-08T13:18:41;16.00;43.70
81726;DHT22;71135;16.738;-14.648;2024-03-08T13:21:11;16.00;43.90
81726;DHT22;71135;16.738;-14.648;2024-03-08T13:23:41;15.90;43.90
81726;DHT22;71135;16.738;-14.648;2024-03-08T13:26:13;15.80;43.70
81726;DHT22;71135;16.738;-14.648;2024-03-08T13:28:45;15.80;43.60
81726;DHT22;71135;16.738;-14.648;2024-03-08T13:31:15;15.80;43.60
81726;DHT22;71135;16.738;-14.648;2024-03-08T13:33:45;15.70;43.70
81726;DHT22;71135;16.738;-14.648;2024-03-08T13:36:14;15.70;43.90
81726;DHT22;71135;16.738;-14.648;2024-03-08T13:38:47;15.70;44.10
81726;DHT22;71135;16.738;-14.648;2024-03-08T13:41:17;15.80;44.10
81726;DHT22;71135;16.738;-14.648;2024-03-08T13:43:51;15.80;44.00
81726;DHT22;71135;16.738;-14.648;2024-03-08T13:46:22;15.80;44.00
81726;DHT22;71135;16.738;-14.648;2024-03-08T13:48:52;15.90;44.00
81726;DHT22;71135;16.738;-14.648;2024-03-08T13:51:28;16.00;43.80
81726;DHT22;71135;16.738;-14.648;2024-03-08T13:53:58;16.00;43.90
81726;DHT22;71135;16.738;-14.648;2024-03-08T13:56:28;16.00;43.80
81726;DHT22;71135;16.738;-14.648;2024-03-08T13:59:00;16.00;43.70
81726;DHT22;71135;16.738;-14.648;2024-03-08T14:01:29;16.00;43.70
81726;DHT22;71135;16.738;-14.648;2024-03-08T14:03:58;16.00;43.40
81726;DHT22;71135;16.738;-14.648;2024-03-08T14:06:27;15.90;43.50
81726;DHT22;71135;16.738;-14.648;2024-03-08T14:08:56;15.80;43.50
81726;DHT22;71135;16.738;-14.648;2024-03-08T14:11:25;15.80;43.70
81726;DHT22;71135;16.738;-14.648;2024-03-08T14:13:54;15.80;43.70
81726;DHT22;71135;16.738;-14.648;2024-03-08T14:16:26;15.80;43.90
81726;DHT22;71135;16.738;-14.648;2024-03-08T14:18:55;15.80;43.70
81726;DHT22;71135;16.738;-14.648;2024-03-08T14:21:29;15.80;43.70
81726;DHT22;71135;16.738;-14.648;2024-03-08T14:23:59;15.80;43.70
81726;DHT22;71135;16.738;-14.648;2024-03-08T14:26:28;15.80;43.50
81726;DHT22;71135;16.738;-14.648;2024-03-08T14:28:57;15.70;43.60
81726;DHT22;71135;16.738;-14.648;2024-03-08T14:31:29;15.60;43.60
81726;DHT22;71135;16.738;-14.648;2024-03-08T14:33:58;15.60;43.70
81726;DHT22;71135;16.738;-14.648;2024-03-08T14:36:27;15.60;43.70
81726;DHT22;71135;16.738;-14.648;2024-03-08T14:38:56;15.60;43.80
81726;DHT22;71135;16.738;-14.648;2024-03-08T14:41:25;15.60;43.80
81726;DHT22;71135;16.738;-14.648;2024-03-08T14:43:56;15.60;43.90
81726;DHT22;71135;16.738;-14.648;2024-03-08T14:46:28;15.60;43.90
81726;DHT22;71135;16.738;-14.648;2024-03-08T14:48:57;15.60;43.90
81726;DHT22;71135;16.738;-14.648;2024-03-08T14:51:28;15.60;43.90
81726;DHT22;71135;16.738;-14.648;2024-03-08T14:53:58;15.50;43.90
81726;DHT22;71135;16.738;-14.648;2024-03-08T14:56:27;15.50;43.90
81726;DHT22;71135;16.738;-14.648;2024-03-08T14:58:57;15.50;43.90
81726;DHT22;71135;16.738;-14.648;2024-03-08T15:01:29;15.40;43.90
81726;DHT22;71135;16.738;-14.648;2024-03-08T15:04:01;15.40;43.90
81726;DHT22;71135;16.738;-14.648;2024-03-08T15:06:34;15.30;44.00
81726;DHT22;71135;16.738;-14.648;2024-03-08T15:09:04;15.30;44.20
81726;DHT22;71135;16.738;-14.648;2024-03-08T15:11:38;15.20;44.20
81726;DHT22;71135;16.738;-14.648;2024-03-08T15:14:08;15.20;44.30
81726;DHT22;71135;16.738;-14.648;2024-03-08T15:16:42;15.10;44.20
81726;DHT22;71135;16.738;-14.648;2024-03-08T15:19:14;15.00;44.40
81726;DHT22;71135;16.738;-14.648;2024-03-08T15:21:46;15.00;44.50
81726;DHT22;71135;16.738;-14.648;2024-03-08T15:24:16;14.90;44.40
81726;DHT22;71135;16.738;-14.648;2024-03-08T15:26:48;14.80;44.40
81726;DHT22;71135;16.738;-14.648;2024-03-08T15:29:21;14.60;44.50
81726;DHT22;71135;16.738;-14.648;2024-03-08T15:31:55;14.50;44.70
81726;DHT22;71135;16.738;-14.648;2024-03-08T15:34:24;14.40;44.80
81726;DHT22;71135;16.738;-14.648;2024-03-08T15:36:53;14.20;45.10
81726;DHT22;71135;16.738;-14.648;2024-03-08T15:39:27;14.10;45.20
81726;DHT22;71135;16.738;-14.648;2024-03-08T15:41:59;14.00;45.40
81726;DHT22;71135;16.738;-14.648;2024-03-08T15:44:29;13.90;45.60
81726;DHT22;71135;16.738;-14.648;2024-03-08T15:47:01;13.90;45.80
81726;DHT22;71135;16.738;-14.648;2024-03-08T15:49:33;13.70;45.80
81726;DHT22;71135;16.738;-14.648;2024-03-08T15:52:02;13.60;45.90
81726;DHT22;71135;16.738;-14.648;2024-03-08T15:54:32;13.50;46.10
81726;DHT22;71135;16.738;-14.648;2024-03-08T15:57:03;13.50;46.20